createdAt,value
2019-05-14T00:03:46.784Z,48.94
2019-05-14T00:08:41.969Z,47.83
2019-05-14T00:13:36.896Z,48.10
2019-05-14T00:18:31.780Z,48.56
2019-05-14T00:23:26.336Z,48.89
2019-05-14T00:28:21.238Z,48.80
2019-05-14T00:33:16.074Z,49.29
2019-05-14T00:38:11.880Z,48.83
2019-05-14T00:43:06.597Z,48.73
2019-05-14T00:48:01.618Z,48.49
2019-05-14T00:52:56.620Z,48.99
2019-05-14T00:57:52.127Z,49.13
2019-05-14T01:02:46.864Z,49.05
2019-05-14T01:07:42.375Z,49.04
2019-05-14T01:12:37.091Z,49.31
2019-05-14T01:17:31.700Z,49.33
2019-05-14T01:22:26.262Z,49.71
2019-05-14T01:27:21.244Z,49.82
2019-05-14T01:32:15.847Z,50.26
2019-05-14T01:37:11.772Z,50.33
2019-05-14T01:42:06.811Z,50.40
2019-05-14T01:47:01.970Z,50.62
2019-05-14T01:51:56.903Z,51.28
2019-05-14T01:56:51.649Z,51.62
2019-05-14T02:01:46.312Z,51.71
2019-05-14T02:06:41.484Z,52.01
2019-05-14T02:11:36.330Z,52.24
2019-05-14T02:16:31.518Z,52.60
2019-05-14T02:21:26.309Z,52.73
2019-05-14T02:26:22.041Z,52.52
2019-05-14T02:31:20.077Z,52.96
2019-05-14T02:36:13.184Z,52.92
2019-05-14T02:41:09.899Z,53.40
2019-05-14T02:46:12.007Z,53.54
2019-05-14T02:51:00.602Z,53.47
2019-05-14T02:55:55.176Z,53.68
2019-05-14T03:00:49.861Z,53.67
2019-05-14T03:05:44.445Z,53.56
2019-05-14T03:10:40.186Z,54.25
2019-05-14T03:15:35.306Z,54.07
2019-05-14T03:20:29.881Z,54.53
2019-05-14T03:25:24.552Z,54.72
2019-05-14T03:30:22.824Z,54.94
2019-05-14T03:35:16.016Z,55.29
2019-05-14T03:40:10.798Z,55.54
2019-05-14T03:45:08.438Z,55.38
2019-05-14T03:50:02.502Z,55.79
2019-05-14T03:55:01.330Z,55.82
2019-05-14T03:59:53.538Z,55.72
2019-05-14T04:04:50.084Z,55.30
2019-05-14T04:09:49.307Z,55.23
2019-05-14T04:14:50.011Z,54.85
2019-05-14T04:19:49.254Z,53.31
2019-05-14T04:24:45.635Z,51.86
2019-05-14T04:29:42.420Z,51.00
2019-05-14T04:34:39.829Z,49.00
2019-05-14T04:39:33.980Z,48.31
2019-05-14T04:44:29.684Z,47.14
2019-05-14T04:49:24.939Z,45.06
2019-05-14T04:54:19.795Z,42.02
2019-05-14T04:59:14.439Z,40.84
2019-05-14T05:04:09.692Z,40.94
2019-05-14T05:09:09.153Z,39.50
2019-05-14T05:14:02.809Z,39.24
2019-05-14T05:18:59.461Z,39.91
2019-05-14T05:23:53.713Z,40.53
2019-05-14T05:29:02.928Z,41.17
2019-05-14T05:33:44.642Z,41.60
2019-05-14T05:38:39.757Z,40.35
2019-05-14T05:43:34.641Z,41.45
2019-05-14T05:48:29.297Z,41.02
2019-05-14T05:53:24.411Z,43.55
2019-05-14T05:58:20.884Z,40.88
2019-05-14T06:03:21.043Z,42.87
2019-05-14T06:08:15.231Z,43.24
2019-05-14T06:13:09.835Z,44.22
2019-05-14T06:18:15.052Z,43.73
2019-05-14T06:23:02.267Z,44.04
2019-05-14T06:27:58.989Z,44.74
2019-05-14T06:32:53.372Z,46.08
2019-05-14T06:37:49.314Z,46.12
2019-05-14T06:42:43.913Z,45.34
2019-05-14T06:47:38.585Z,45.62
2019-05-14T06:52:38.396Z,45.54
2019-05-14T06:57:33.479Z,44.57
2019-05-14T07:02:28.519Z,44.14
2019-05-14T07:07:23.545Z,43.20
2019-05-14T07:12:19.113Z,43.99
2019-05-14T07:17:14.275Z,44.39
2019-05-14T07:22:09.203Z,43.51
2019-05-14T07:27:03.770Z,42.98
2019-05-14T07:31:58.942Z,43.00
2019-05-14T07:36:53.730Z,43.00
2019-05-14T07:41:53.292Z,41.51
2019-05-14T07:46:53.272Z,40.80
2019-05-14T07:51:51.917Z,40.63
2019-05-14T07:56:50.891Z,40.26
2019-05-14T08:01:43.058Z,39.30
2019-05-14T08:06:39.397Z,38.84
2019-05-14T08:11:34.275Z,38.24
2019-05-14T08:16:29.224Z,37.88
2019-05-14T08:21:24.904Z,37.97
2019-05-14T08:26:19.551Z,36.98
2019-05-14T08:31:14.223Z,37.14
2019-05-14T08:36:09.129Z,36.70
2019-05-14T08:41:03.806Z,36.53
2019-05-14T08:45:58.936Z,36.59
2019-05-14T08:50:59.146Z,36.54
2019-05-14T08:55:54.251Z,34.17
2019-05-14T09:00:48.980Z,33.91
2019-05-14T09:05:43.621Z,34.25
2019-05-14T09:10:40.251Z,33.24
2019-05-14T09:15:34.718Z,33.22
2019-05-14T09:20:29.661Z,33.97
2019-05-14T09:25:25.053Z,33.13
2019-05-14T09:30:22.166Z,33.64
2019-05-14T09:35:18.884Z,35.32
2019-05-14T09:40:13.500Z,34.83
2019-05-14T09:45:11.070Z,32.89
2019-05-14T09:50:16.323Z,31.43
2019-05-14T09:55:04.327Z,32.46
2019-05-14T09:59:59.043Z,34.12
2019-05-14T10:04:53.634Z,33.24
2019-05-14T10:09:49.256Z,32.10
2019-05-14T10:14:44.147Z,32.32
2019-05-14T10:19:39.465Z,32.65
2019-05-14T10:24:34.318Z,32.24
2019-05-14T10:29:29.191Z,34.23
2019-05-14T10:34:25.701Z,33.23
2019-05-14T10:39:20.648Z,32.66
2019-05-14T10:44:15.420Z,32.20
2019-05-14T10:49:23.506Z,33.93
2019-05-14T10:54:22.356Z,33.65
2019-05-14T10:59:11.383Z,32.97
2019-05-14T11:04:06.001Z,33.97
2019-05-14T11:09:00.627Z,32.55
2019-05-14T11:13:55.547Z,32.92
2019-05-14T11:18:51.128Z,33.20
2019-05-14T11:23:51.054Z,31.70
2019-05-14T11:28:49.128Z,30.21
2019-05-14T11:33:43.827Z,30.74
2019-05-14T11:38:45.072Z,32.84
2019-05-14T11:43:40.155Z,33.12
2019-05-14T11:48:34.867Z,30.32
2019-05-14T11:53:29.750Z,32.13
2019-05-14T11:58:24.378Z,31.44
2019-05-14T12:03:19.885Z,32.47
2019-05-14T12:08:14.660Z,32.33
2019-05-14T12:13:09.353Z,32.57
2019-05-14T12:18:03.927Z,33.02
2019-05-14T12:22:59.326Z,33.97
2019-05-14T12:27:53.998Z,34.87
2019-05-14T12:32:50.041Z,35.23
2019-05-14T12:37:47.582Z,35.58
2019-05-14T12:42:45.793Z,34.68
2019-05-14T12:47:40.713Z,35.03
2019-05-14T12:52:35.551Z,34.04
2019-05-14T12:57:30.244Z,33.71
2019-05-14T13:02:24.893Z,33.53
2019-05-14T13:07:25.578Z,32.69
2019-05-14T13:12:21.538Z,33.10
2019-05-14T13:17:18.524Z,32.59
2019-05-14T13:22:15.069Z,34.01
2019-05-14T13:27:09.665Z,34.73
2019-05-14T13:32:04.591Z,34.93
2019-05-14T13:36:59.817Z,34.40
2019-05-14T13:41:54.510Z,34.32
2019-05-14T13:46:49.471Z,36.16
2019-05-14T13:51:44.068Z,36.55
2019-05-14T13:56:39.091Z,35.88
2019-05-14T14:01:37.264Z,35.41
2019-05-14T14:06:32.719Z,35.23
2019-05-14T14:11:28.627Z,32.35
2019-05-14T14:16:23.925Z,33.62
2019-05-14T14:21:19.780Z,33.18
2019-05-14T14:26:18.228Z,33.19
2019-05-14T14:31:12.601Z,33.60
2019-05-14T14:36:07.172Z,34.94
2019-05-14T14:41:01.775Z,33.76
2019-05-14T14:45:59.206Z,34.20
2019-05-14T14:50:58.622Z,32.63
2019-05-14T14:55:53.080Z,32.41
2019-05-14T15:00:48.777Z,33.13
2019-05-14T15:05:43.780Z,34.56
2019-05-14T15:10:39.539Z,35.60
2019-05-14T15:15:34.498Z,36.88
2019-05-14T15:20:29.364Z,37.87
2019-05-14T15:25:25.879Z,38.05
2019-05-14T15:30:20.755Z,38.14
2019-05-14T15:35:15.785Z,37.37
2019-05-14T15:40:10.716Z,37.17
2019-05-14T15:45:05.785Z,36.56
2019-05-14T15:50:00.379Z,36.13
2019-05-14T15:54:54.965Z,36.71
2019-05-14T15:59:49.570Z,36.49
2019-05-14T16:04:44.158Z,35.80
2019-05-14T16:09:39.665Z,37.89
2019-05-14T16:14:34.614Z,37.83
2019-05-14T16:19:29.201Z,37.43
2019-05-14T16:24:23.776Z,37.26
2019-05-14T16:29:19.212Z,37.67
2019-05-14T16:34:15.064Z,38.11
2019-05-14T16:39:09.880Z,38.08
2019-05-14T16:44:05.207Z,37.59
2019-05-14T16:48:59.888Z,38.19
2019-05-14T16:53:54.474Z,38.22
2019-05-14T16:58:49.071Z,38.23
2019-05-14T17:03:43.663Z,38.52
2019-05-14T17:08:39.414Z,37.26
2019-05-14T17:13:34.232Z,36.66
2019-05-14T17:18:29.069Z,35.59
2019-05-14T17:23:23.664Z,35.06
2019-05-14T17:28:18.241Z,38.44
2019-05-14T17:33:12.833Z,38.86
2019-05-14T17:38:09.202Z,39.54
2019-05-14T17:43:03.749Z,39.56
2019-05-14T17:47:58.571Z,40.18
2019-05-14T17:52:56.148Z,40.18
2019-05-14T17:57:57.414Z,40.55
2019-05-14T18:02:48.422Z,40.38
2019-05-14T18:07:42.461Z,40.11
2019-05-14T18:12:39.647Z,40.81
2019-05-14T18:17:33.442Z,40.72
2019-05-14T18:22:28.644Z,41.05
2019-05-14T18:27:23.690Z,41.88
2019-05-14T18:32:19.044Z,39.55
2019-05-14T18:37:14.076Z,41.04
2019-05-14T18:42:08.759Z,41.53
2019-05-14T18:47:03.422Z,41.81
2019-05-14T18:51:59.274Z,41.56
2019-05-14T18:56:54.204Z,41.40
2019-05-14T19:01:50.035Z,41.69
2019-05-14T19:06:45.140Z,41.98
2019-05-14T19:11:39.750Z,42.06
2019-05-14T19:16:34.994Z,41.69
2019-05-14T19:21:29.603Z,40.93
2019-05-14T19:26:33.371Z,39.61
2019-05-14T19:31:20.519Z,39.89
2019-05-14T19:36:15.120Z,40.96
2019-05-14T19:41:09.869Z,45.21
2019-05-14T19:46:04.597Z,48.73
2019-05-14T19:50:59.225Z,49.64
2019-05-14T19:55:53.821Z,50.78
2019-05-14T20:00:48.862Z,52.16
2019-05-14T20:05:43.785Z,50.03
2019-05-14T20:10:38.936Z,45.57
2019-05-14T20:15:33.861Z,44.63
2019-05-14T20:20:28.951Z,43.75
2019-05-14T20:25:23.880Z,43.94
2019-05-14T20:30:18.923Z,43.89
2019-05-14T20:35:28.324Z,44.02
2019-05-14T20:40:11.574Z,44.38
2019-05-14T20:45:10.762Z,44.94
2019-05-14T20:50:08.950Z,45.46
2019-05-14T20:55:05.789Z,45.93
2019-05-14T21:00:00.373Z,46.50
2019-05-14T21:04:55.946Z,46.92
2019-05-14T21:09:51.275Z,46.80
2019-05-14T21:14:48.867Z,46.98
2019-05-14T21:19:42.204Z,47.28
2019-05-14T21:24:39.210Z,47.60
2019-05-14T21:29:33.195Z,48.33
2019-05-14T21:34:28.236Z,48.71
2019-05-14T21:39:23.121Z,49.47
2019-05-14T21:44:18.852Z,50.15
2019-05-14T21:49:13.553Z,51.12
2019-05-14T21:54:09.475Z,51.52
2019-05-14T21:59:04.444Z,52.56
2019-05-14T22:03:59.362Z,53.21
2019-05-14T22:08:54.264Z,53.92
2019-05-14T22:13:49.590Z,54.47
2019-05-14T22:18:44.498Z,55.12
2019-05-14T22:23:39.094Z,55.52
2019-05-14T22:28:33.687Z,55.82
2019-05-14T22:33:28.512Z,56.29
2019-05-14T22:38:23.327Z,56.64
2019-05-14T22:43:18.270Z,56.41
2019-05-14T22:48:13.176Z,57.93
2019-05-14T22:53:09.346Z,60.10
2019-05-14T22:58:04.214Z,61.40
2019-05-14T23:02:58.800Z,62.41
2019-05-14T23:07:53.383Z,63.09
2019-05-14T23:12:48.829Z,63.66
2019-05-14T23:17:43.822Z,63.83
2019-05-14T23:22:39.311Z,64.54
2019-05-14T23:27:33.962Z,64.86
2019-05-14T23:32:28.677Z,65.50
2019-05-14T23:37:23.433Z,65.73
2019-05-14T23:42:18.643Z,66.61
2019-05-14T23:47:13.504Z,66.42
2019-05-14T23:52:08.076Z,66.68
2019-05-14T23:57:02.682Z,66.88
